Aérodrome :
LOGIN :

S'inscrire | Disclaimer

   EN    FR    IT 

 










Légende :    VFR   VFR Marginal   IFR   IFR Intensif   IFR Très Intensif
Visi : 
Plafond : 
>= 8 km
>= 3000ft
5 à 8 km
1000 à 3000 ft
1500m à 5 km
500 à 1000 ft
800 à 1500m
200 à 500 ft
< 800m
< 200 ft
Symboles :   Orages  Brouillard  Fortes neiges  Fortes précipitations  Vent > 20 kt
SIGMETs :   Divers  Orages  Givrage  Turbulence  Onde Orograph.  Cendres Volcan.






- Altitude de l'aérodrome : 348 ft
- Code IATA : STN


EGSS - London Stansted

DERNIER METAR :
  • 091050Z AUTO 06007KT 020V100 9999 NCD 27/17 Q1018

METARs EXPIRÉS :
  • 091020Z AUTO 07008KT 9999 NCD 25/17 Q1019
  • 090950Z AUTO 04008KT 010V070 9999 NCD 24/17 Q1019
  • 090920Z AUTO 03007KT 360V090 9999 NCD 22/16 Q1019
  • 090850Z AUTO 03008KT 9999 NCD 21/16 Q1019
  • 090820Z AUTO 02008KT 9999 NCD 20/16 Q1019

TAF TAF EGSS
Valide du 09 à 06h jusqu'au 10 à 12h UTC


090503Z 0906/1012 02009KT 5000 HZ OVC005
BECMG 0907/0910 CAVOK
PROB30
TEMPO 1000/1012 8000 SHRA
ATIS : +44 1279 669 325



MET'MAP, la Météo Aéronautique d'un coup d'oeil ! - Copyright ORBIFLY Décembre 2007 - Disclaimer

ORBIFLY MET'MAP TEAM :

Programmation & Développement : Alexandra Zaïnal
Sur une idée originale de : Baudouin d'Aumeries
Assistance à la programmation : Marc-Olivier Méhu
Soutien technique & logistique : Manuel Goepfert

Contact : metmap@orbifly.com




SOURCES & CREDITS :

   NOAA